createdAt,value
2023-03-29T00:00:01.366Z,6.25
2023-03-29T00:02:31.135Z,6.97
2023-03-29T00:05:02.040Z,7.22
2023-03-29T00:07:33.295Z,8.32
2023-03-29T00:10:02.356Z,8.70
2023-03-29T00:12:29.163Z,5.05
2023-03-29T00:14:55.924Z,7.43
2023-03-29T00:17:23.182Z,6.22
2023-03-29T00:19:49.857Z,6.68
2023-03-29T00:22:16.555Z,6.40
2023-03-29T00:24:43.331Z,8.25
2023-03-29T00:27:09.998Z,5.95
2023-03-29T00:29:36.717Z,5.75
2023-03-29T00:32:03.471Z,6.47
2023-03-29T00:34:30.911Z,6.07
2023-03-29T00:36:58.804Z,6.32
2023-03-29T00:39:27.942Z,7.72
2023-03-29T00:41:55.624Z,9.38
2023-03-29T00:45:03.824Z,8.63
2023-03-29T00:47:58.944Z,8.88
2023-03-29T00:50:32.713Z,6.68
2023-03-29T00:53:21.677Z,10.98
2023-03-29T00:56:17.993Z,5.22
2023-03-29T00:59:16.524Z,11.07
2023-03-29T01:02:03.561Z,6.60
2023-03-29T01:04:42.601Z,8.77
2023-03-29T01:07:23.532Z,7.53
2023-03-29T01:10:02.267Z,8.93
2023-03-29T01:12:36.021Z,8.27
2023-03-29T01:15:11.174Z,11.23
2023-03-29T01:17:40.597Z,6.03
2023-03-29T01:20:17.524Z,7.00
2023-03-29T01:23:21.314Z,6.97
2023-03-29T01:26:44.946Z,6.38
2023-03-29T01:29:21.223Z,6.30
2023-03-29T01:31:57.054Z,6.15
2023-03-29T01:34:46.097Z,8.90
2023-03-29T01:37:49.592Z,8.48
2023-03-29T01:40:17.451Z,7.63
2023-03-29T01:42:54.706Z,5.28
2023-03-29T01:45:54.387Z,7.78
2023-03-29T01:48:43.165Z,6.10
2023-03-29T01:51:33.195Z,11.65
2023-03-29T01:54:33.527Z,7.22
2023-03-29T01:57:06.043Z,4.63
2023-03-29T01:59:42.208Z,5.35
2023-03-29T02:02:15.009Z,10.90
2023-03-29T02:04:50.814Z,8.90
2023-03-29T02:07:23.089Z,8.82
2023-03-29T02:09:52.685Z,8.43
2023-03-29T02:12:20.661Z,7.35
2023-03-29T02:14:47.440Z,6.68
2023-03-29T02:17:26.126Z,7.28
2023-03-29T02:20:00.731Z,5.25
2023-03-29T02:22:43.674Z,5.78
2023-03-29T02:25:10.491Z,5.80
2023-03-29T02:27:39.364Z,6.07
2023-03-29T02:30:10.742Z,7.85
2023-03-29T02:32:52.739Z,5.60
2023-03-29T02:35:34.352Z,10.30
2023-03-29T02:38:07.752Z,6.40
2023-03-29T02:40:37.645Z,9.15
2023-03-29T02:43:07.249Z,9.18
2023-03-29T02:45:36.957Z,6.35
2023-03-29T02:48:09.050Z,10.57
2023-03-29T02:50:39.370Z,8.52
2023-03-29T02:53:14.678Z,7.18
2023-03-29T02:55:46.805Z,6.80
2023-03-29T02:58:15.343Z,7.57
2023-03-29T03:00:46.573Z,8.02
2023-03-29T03:03:15.545Z,10.15
2023-03-29T03:05:44.432Z,7.55
2023-03-29T03:08:11.424Z,12.00
2023-03-29T03:10:39.009Z,8.57
2023-03-29T03:13:05.846Z,7.18
2023-03-29T03:15:35.813Z,7.35
2023-03-29T03:18:03.947Z,10.77
2023-03-29T03:20:31.241Z,7.28
2023-03-29T03:22:58.508Z,5.63
2023-03-29T03:25:25.417Z,7.40
2023-03-29T03:27:53.131Z,8.27
2023-03-29T03:30:22.363Z,6.72
2023-03-29T03:33:07.861Z,8.75
2023-03-29T03:36:06.063Z,10.27
2023-03-29T03:38:35.985Z,9.02
2023-03-29T03:41:03.610Z,7.05
2023-03-29T03:43:33.898Z,9.57
2023-03-29T03:46:01.428Z,10.32
2023-03-29T03:48:28.487Z,10.70
2023-03-29T03:51:15.510Z,9.90
2023-03-29T03:53:42.888Z,8.20
2023-03-29T03:56:13.399Z,9.45
2023-03-29T03:58:58.692Z,10.70
2023-03-29T04:01:28.118Z,6.22
2023-03-29T04:04:04.664Z,9.98
2023-03-29T04:06:32.542Z,8.57
2023-03-29T04:09:18.080Z,7.70
2023-03-29T04:11:53.010Z,8.05
2023-03-29T04:14:20.475Z,4.70
2023-03-29T04:16:59.020Z,8.02
2023-03-29T04:19:54.845Z,9.63
2023-03-29T04:22:21.701Z,12.23
2023-03-29T04:24:48.888Z,7.47
2023-03-29T04:27:34.299Z,7.28
2023-03-29T04:30:07.232Z,11.65
2023-03-29T04:32:52.366Z,9.57
2023-03-29T04:35:19.276Z,8.60
2023-03-29T04:37:46.487Z,9.07
2023-03-29T04:40:15.459Z,11.00
2023-03-29T04:42:57.770Z,12.13
2023-03-29T04:45:25.280Z,10.57
2023-03-29T04:48:05.666Z,8.07
2023-03-29T04:50:33.113Z,7.57
2023-03-29T04:53:00.369Z,12.30
2023-03-29T04:55:28.398Z,8.27
2023-03-29T04:58:02.726Z,7.60
2023-03-29T05:00:34.958Z,11.27
2023-03-29T05:03:07.410Z,9.38
2023-03-29T05:05:38.775Z,10.75
2023-03-29T05:08:07.444Z,7.97
2023-03-29T05:10:44.613Z,9.73
2023-03-29T05:13:12.747Z,5.78
2023-03-29T05:15:41.804Z,10.00
2023-03-29T05:18:09.669Z,10.70
2023-03-29T05:20:37.462Z,13.63
2023-03-29T05:23:04.232Z,8.90
2023-03-29T05:25:57.230Z,9.23
2023-03-29T05:28:23.968Z,9.57
2023-03-29T05:31:04.760Z,11.35
2023-03-29T05:33:34.567Z,6.75
2023-03-29T05:36:06.037Z,10.20
2023-03-29T05:38:34.193Z,9.45
2023-03-29T05:41:01.476Z,8.30
2023-03-29T05:43:46.724Z,8.55
2023-03-29T05:46:13.471Z,8.02
2023-03-29T05:48:47.427Z,9.52
2023-03-29T05:51:14.947Z,8.57
2023-03-29T05:53:41.739Z,10.10
2023-03-29T05:56:10.725Z,9.70
2023-03-29T05:58:39.274Z,10.80
2023-03-29T06:01:13.240Z,10.27
2023-03-29T06:06:38.434Z,9.20
2023-03-29T06:09:06.881Z,10.35
2023-03-29T06:11:40.797Z,11.40
2023-03-29T06:14:07.691Z,8.45
2023-03-29T06:16:42.576Z,11.05
2023-03-29T06:19:10.320Z,9.65
2023-03-29T06:21:38.267Z,10.52
2023-03-29T06:24:06.825Z,7.63
2023-03-29T06:26:39.114Z,14.90
2023-03-29T06:29:06.193Z,9.02
2023-03-29T06:31:36.001Z,8.02
2023-03-29T06:34:04.661Z,9.15
2023-03-29T06:37:06.727Z,6.45
2023-03-29T06:39:33.637Z,10.00
2023-03-29T06:42:21.835Z,7.38
2023-03-29T06:45:23.301Z,9.68
2023-03-29T06:47:51.036Z,10.65
2023-03-29T06:50:18.213Z,10.55
2023-03-29T06:53:04.270Z,6.43
2023-03-29T06:55:31.693Z,9.30
2023-03-29T06:58:08.159Z,9.02
2023-03-29T07:00:38.157Z,9.63
2023-03-29T07:03:23.352Z,9.70
2023-03-29T07:05:53.032Z,5.78
2023-03-29T07:08:22.367Z,7.35
2023-03-29T07:10:55.034Z,7.38
2023-03-29T07:13:54.196Z,10.48
2023-03-29T07:16:21.121Z,8.93
2023-03-29T07:18:47.851Z,10.77
2023-03-29T07:21:26.534Z,7.70
2023-03-29T07:23:53.984Z,7.20
2023-03-29T07:26:28.560Z,10.90
2023-03-29T07:28:56.322Z,6.80
2023-03-29T07:31:23.090Z,6.28
2023-03-29T07:33:56.406Z,7.22
2023-03-29T07:36:28.597Z,10.73
2023-03-29T07:38:57.095Z,6.88
2023-03-29T07:41:25.200Z,5.70
2023-03-29T07:44:04.906Z,9.65
2023-03-29T07:46:31.688Z,17.48
2023-03-29T07:48:58.446Z,9.93
2023-03-29T07:51:25.380Z,8.98
2023-03-29T07:53:59.797Z,9.73
2023-03-29T07:56:38.612Z,10.60
2023-03-29T07:59:37.668Z,13.45
2023-03-29T08:02:11.163Z,9.60
2023-03-29T08:04:41.041Z,13.27
2023-03-29T08:10:06.684Z,10.63
2023-03-29T08:12:52.342Z,5.95
2023-03-29T08:15:22.769Z,6.78
2023-03-29T08:17:49.468Z,8.25
2023-03-29T08:20:16.650Z,7.22
2023-03-29T08:22:46.342Z,6.35
2023-03-29T08:25:29.462Z,12.52
2023-03-29T08:27:57.756Z,8.93
2023-03-29T08:30:35.156Z,8.40
2023-03-29T08:33:03.161Z,8.15
2023-03-29T08:35:29.925Z,8.52
2023-03-29T08:38:08.364Z,8.18
2023-03-29T08:40:35.932Z,12.98
2023-03-29T08:43:42.415Z,6.88
2023-03-29T08:46:42.320Z,7.30
2023-03-29T08:49:21.063Z,9.65
2023-03-29T08:51:57.954Z,8.75
2023-03-29T08:54:33.118Z,8.70
2023-03-29T08:57:21.895Z,8.77
2023-03-29T08:59:57.293Z,10.23
2023-03-29T09:02:33.903Z,7.05
2023-03-29T09:05:27.888Z,19.48
2023-03-29T09:08:21.252Z,9.45
2023-03-29T09:11:28.332Z,10.98
2023-03-29T09:14:37.546Z,9.75
2023-03-29T09:17:35.968Z,8.32
2023-03-29T09:20:22.336Z,7.53
2023-03-29T09:23:13.541Z,8.45
2023-03-29T09:26:40.052Z,6.40
2023-03-29T09:29:56.300Z,11.77
2023-03-29T09:32:51.288Z,11.32
2023-03-29T09:35:51.514Z,7.93
2023-03-29T09:38:21.471Z,9.80
2023-03-29T09:40:55.967Z,9.27
2023-03-29T09:43:37.782Z,9.90
2023-03-29T09:46:30.263Z,6.65
2023-03-29T09:48:57.260Z,12.68
2023-03-29T09:51:29.883Z,6.97
2023-03-29T09:53:57.791Z,8.88
2023-03-29T09:59:13.879Z,11.20
2023-03-29T10:01:45.570Z,8.63
2023-03-29T10:04:14.342Z,7.22
2023-03-29T10:06:52.124Z,6.75
2023-03-29T10:09:23.295Z,7.85
2023-03-29T10:11:57.811Z,6.25
2023-03-29T10:14:33.501Z,10.27
2023-03-29T10:19:35.947Z,5.15
2023-03-29T10:24:48.060Z,9.73
2023-03-29T10:27:15.975Z,10.45
2023-03-29T10:29:43.237Z,7.70
2023-03-29T10:32:22.824Z,8.57
2023-03-29T10:34:51.985Z,6.85
2023-03-29T10:37:21.067Z,5.57
2023-03-29T10:39:48.885Z,8.90
2023-03-29T10:42:19.558Z,7.28
2023-03-29T10:44:58.862Z,5.78
2023-03-29T10:47:26.551Z,6.30
2023-03-29T10:50:01.716Z,7.32
2023-03-29T10:52:29.728Z,6.68
2023-03-29T10:54:56.850Z,8.20
2023-03-29T10:57:56.904Z,7.55
2023-03-29T11:00:42.008Z,6.75
2023-03-29T11:03:40.455Z,6.70
2023-03-29T11:06:34.645Z,8.50
2023-03-29T11:09:24.090Z,8.38
2023-03-29T11:12:15.016Z,6.88
2023-03-29T11:15:10.309Z,4.40
2023-03-29T11:18:01.231Z,7.72
2023-03-29T11:20:53.794Z,5.57
2023-03-29T11:23:42.849Z,3.50
2023-03-29T11:26:19.406Z,4.70
2023-03-29T11:29:20.768Z,6.05
2023-03-29T11:32:03.298Z,5.50
2023-03-29T11:34:57.796Z,4.25
2023-03-29T11:37:56.067Z,5.65
2023-03-29T11:40:51.537Z,5.32
2023-03-29T11:43:45.642Z,4.72
2023-03-29T11:46:19.323Z,4.65
2023-03-29T11:49:11.140Z,6.13
2023-03-29T11:51:46.222Z,3.65
2023-03-29T11:54:50.275Z,3.22
2023-03-29T11:57:51.487Z,5.75
2023-03-29T12:00:27.418Z,4.85
2023-03-29T12:03:06.993Z,5.85
2023-03-29T12:05:43.827Z,4.40
2023-03-29T12:08:18.718Z,3.80
2023-03-29T12:10:49.890Z,4.45
2023-03-29T12:13:27.049Z,5.25
2023-03-29T12:16:34.330Z,8.02
2023-03-29T12:19:26.283Z,4.72
2023-03-29T12:21:57.077Z,4.32
2023-03-29T12:24:29.555Z,6.43
2023-03-29T12:27:29.844Z,4.85
2023-03-29T12:30:34.222Z,4.95
2023-03-29T12:33:07.301Z,5.95
2023-03-29T12:36:05.868Z,4.30
2023-03-29T12:38:52.671Z,4.38
2023-03-29T12:41:38.427Z,4.82
2023-03-29T12:44:24.175Z,6.90
2023-03-29T12:47:00.205Z,3.00
2023-03-29T12:49:35.881Z,5.13
2023-03-29T12:52:27.216Z,2.75
2023-03-29T12:54:58.453Z,3.58
2023-03-29T12:57:40.870Z,3.28
2023-03-29T13:00:44.849Z,3.88
2023-03-29T13:03:49.527Z,5.93
2023-03-29T13:06:33.258Z,4.55
2023-03-29T13:09:22.075Z,3.70
2023-03-29T13:12:15.730Z,3.30
2023-03-29T13:14:51.783Z,6.32
2023-03-29T13:18:01.288Z,3.97
2023-03-29T13:20:47.758Z,5.43
2023-03-29T13:23:50.960Z,4.15
2023-03-29T13:26:39.395Z,5.25
2023-03-29T13:29:23.943Z,4.22
2023-03-29T13:32:58.086Z,2.55
2023-03-29T13:36:06.705Z,4.00
2023-03-29T13:38:45.445Z,4.32
2023-03-29T13:41:39.210Z,4.22
2023-03-29T13:44:30.088Z,2.28
2023-03-29T13:47:25.085Z,3.90
2023-03-29T13:49:57.991Z,1.70
2023-03-29T13:52:30.575Z,3.45
2023-03-29T13:55:07.186Z,2.13
2023-03-29T13:57:43.562Z,1.95
2023-03-29T14:00:28.683Z,5.45
2023-03-29T14:03:01.325Z,1.85
2023-03-29T14:05:41.711Z,3.17
2023-03-29T14:08:40.404Z,2.15
2023-03-29T14:11:12.570Z,2.03
2023-03-29T14:13:39.331Z,3.83
2023-03-29T14:16:11.854Z,2.70
2023-03-29T14:18:41.900Z,2.60
2023-03-29T14:21:12.316Z,2.55
2023-03-29T14:23:42.048Z,6.22
2023-03-29T14:26:18.887Z,3.50
2023-03-29T14:28:49.322Z,4.47
2023-03-29T14:31:35.466Z,3.13
2023-03-29T14:34:06.585Z,4.00
2023-03-29T14:36:34.324Z,4.47
2023-03-29T14:39:21.099Z,3.13
2023-03-29T14:41:55.364Z,3.95
2023-03-29T14:44:25.913Z,3.30
2023-03-29T14:46:53.581Z,2.80
2023-03-29T14:49:22.886Z,3.30
2023-03-29T14:51:50.769Z,2.72
2023-03-29T14:54:31.817Z,3.08
2023-03-29T14:56:59.287Z,2.42
2023-03-29T14:59:38.421Z,2.25
2023-03-29T15:02:22.865Z,3.83
2023-03-29T15:05:23.205Z,2.45
2023-03-29T15:07:52.117Z,2.75
2023-03-29T15:10:19.605Z,5.32
2023-03-29T15:12:46.628Z,4.68
2023-03-29T15:15:13.764Z,2.17
2023-03-29T15:17:51.823Z,2.65
2023-03-29T15:20:34.681Z,3.88
2023-03-29T15:23:16.444Z,7.03
2023-03-29T15:25:52.787Z,5.15
2023-03-29T15:28:32.599Z,2.58
2023-03-29T15:31:12.313Z,4.90
2023-03-29T15:33:41.983Z,4.18
2023-03-29T15:36:12.167Z,4.00
2023-03-29T15:38:44.650Z,3.22
2023-03-29T15:41:14.422Z,5.28
2023-03-29T15:43:42.248Z,3.63
2023-03-29T15:46:13.024Z,3.03
2023-03-29T15:48:39.840Z,3.40
2023-03-29T15:51:07.459Z,4.05
2023-03-29T15:53:35.486Z,5.35
2023-03-29T15:56:05.277Z,4.10
2023-03-29T15:58:33.644Z,4.45
2023-03-29T16:01:36.509Z,2.58
2023-03-29T16:04:07.020Z,3.78
2023-03-29T16:06:34.725Z,7.07
2023-03-29T16:09:01.945Z,5.28
2023-03-29T16:11:28.864Z,4.90
2023-03-29T16:13:56.586Z,4.32
2023-03-29T16:16:23.888Z,5.07
2023-03-29T16:18:52.924Z,2.47
2023-03-29T16:21:22.068Z,2.95
2023-03-29T16:23:48.757Z,2.25
2023-03-29T16:26:17.067Z,2.63
2023-03-29T16:28:44.204Z,2.25
2023-03-29T16:31:13.268Z,5.72
2023-03-29T16:33:43.155Z,5.53
2023-03-29T16:36:11.637Z,2.85
2023-03-29T16:38:38.428Z,4.93
2023-03-29T16:41:05.654Z,3.75
2023-03-29T16:43:32.448Z,5.07
2023-03-29T16:45:59.342Z,7.53
2023-03-29T16:48:27.042Z,3.00
2023-03-29T16:50:53.833Z,4.97
2023-03-29T16:53:21.362Z,3.80
2023-03-29T16:55:49.572Z,6.25
2023-03-29T16:58:16.384Z,4.20
2023-03-29T17:00:46.375Z,4.70
2023-03-29T17:03:15.278Z,2.85
2023-03-29T17:05:51.971Z,4.22
2023-03-29T17:08:20.287Z,4.45
2023-03-29T17:10:52.261Z,2.70
2023-03-29T17:13:20.542Z,5.70
2023-03-29T17:15:47.431Z,4.03
2023-03-29T17:18:14.565Z,4.68
2023-03-29T17:20:41.389Z,4.07
2023-03-29T17:23:08.906Z,5.43
2023-03-29T17:25:36.718Z,3.25
2023-03-29T17:28:04.029Z,4.20
2023-03-29T17:30:30.936Z,5.65
2023-03-29T17:32:57.640Z,4.53
2023-03-29T17:35:24.394Z,2.45
2023-03-29T17:37:51.135Z,2.83
2023-03-29T17:40:18.548Z,2.15
2023-03-29T17:42:48.723Z,4.75
2023-03-29T17:45:16.199Z,3.15
2023-03-29T17:47:42.910Z,3.65
2023-03-29T17:50:11.806Z,5.18
2023-03-29T17:52:39.687Z,5.45
2023-03-29T17:55:13.442Z,4.65
2023-03-29T17:57:41.377Z,4.22
2023-03-29T18:00:12.400Z,4.85
2023-03-29T18:02:40.701Z,6.05
2023-03-29T18:05:09.398Z,4.15
2023-03-29T18:07:36.873Z,7.43
2023-03-29T18:10:04.602Z,5.95
2023-03-29T18:12:31.460Z,6.28
2023-03-29T18:14:58.218Z,4.47
2023-03-29T18:17:27.345Z,6.68
2023-03-29T18:19:54.193Z,5.13
2023-03-29T18:22:21.602Z,5.75
2023-03-29T18:24:49.190Z,6.55
2023-03-29T18:27:16.018Z,7.38
2023-03-29T18:29:44.040Z,7.70
2023-03-29T18:32:11.573Z,5.20
2023-03-29T18:34:39.269Z,4.03
2023-03-29T18:37:06.385Z,9.77
2023-03-29T18:39:34.722Z,5.93
2023-03-29T18:42:02.050Z,3.42
2023-03-29T18:44:29.428Z,4.15
2023-03-29T18:46:56.282Z,4.63
2023-03-29T18:49:24.944Z,4.88
2023-03-29T18:51:51.929Z,6.55
2023-03-29T18:54:18.732Z,3.55
2023-03-29T18:56:45.534Z,4.28
2023-03-29T18:59:12.579Z,2.90
2023-03-29T19:01:39.290Z,6.80
2023-03-29T19:04:06.240Z,3.78
2023-03-29T19:06:33.077Z,7.70
2023-03-29T19:09:01.946Z,4.70
2023-03-29T19:11:33.164Z,5.53
2023-03-29T19:13:59.933Z,4.72
2023-03-29T19:16:27.496Z,2.95
2023-03-29T19:18:54.431Z,3.75
2023-03-29T19:21:21.335Z,3.70
2023-03-29T19:23:51.701Z,7.25
2023-03-29T19:26:18.522Z,3.75
2023-03-29T19:28:45.581Z,7.25
2023-03-29T19:31:12.465Z,5.28
2023-03-29T19:33:40.798Z,12.15
2023-03-29T19:36:07.886Z,8.00
2023-03-29T19:38:34.708Z,7.38
2023-03-29T19:41:01.578Z,4.85
2023-03-29T19:43:29.066Z,7.05
2023-03-29T19:45:55.775Z,4.45
2023-03-29T19:48:24.707Z,6.38
2023-03-29T19:50:51.920Z,6.72
2023-03-29T19:53:18.613Z,4.45
2023-03-29T19:55:45.713Z,3.92
2023-03-29T19:58:13.061Z,5.85
2023-03-29T20:00:41.790Z,4.10
2023-03-29T20:03:12.460Z,4.75
2023-03-29T20:05:40.138Z,4.18
2023-03-29T20:08:07.899Z,3.70
2023-03-29T20:10:35.971Z,4.25
2023-03-29T20:13:03.538Z,4.53
2023-03-29T20:15:30.229Z,6.57
2023-03-29T20:17:59.376Z,4.68
2023-03-29T20:20:28.452Z,8.10
2023-03-29T20:22:58.207Z,5.53
2023-03-29T20:25:25.836Z,4.70
2023-03-29T20:27:53.130Z,4.47
2023-03-29T20:30:20.477Z,5.25
2023-03-29T20:32:47.404Z,6.47
2023-03-29T20:35:14.322Z,3.95
2023-03-29T20:37:41.183Z,7.10
2023-03-29T20:40:11.301Z,11.85
2023-03-29T20:42:38.711Z,8.70
2023-03-29T20:45:07.794Z,6.97
2023-03-29T20:47:42.238Z,7.78
2023-03-29T20:50:10.525Z,7.28
2023-03-29T20:52:37.339Z,8.57
2023-03-29T20:55:05.656Z,6.10
2023-03-29T20:57:32.523Z,8.57
2023-03-29T20:59:59.460Z,8.57
2023-03-29T21:02:26.316Z,10.10
2023-03-29T21:04:53.953Z,10.93
2023-03-29T21:07:21.588Z,15.25
2023-03-29T21:09:49.976Z,12.50
2023-03-29T21:12:17.376Z,15.68
2023-03-29T21:14:44.771Z,12.48
2023-03-29T21:17:11.634Z,8.65
2023-03-29T21:19:39.559Z,8.02
2023-03-29T21:22:06.697Z,10.52
2023-03-29T21:24:36.325Z,11.50
2023-03-29T21:27:03.280Z,6.10
2023-03-29T21:29:30.195Z,7.43
2023-03-29T21:31:57.160Z,4.38
2023-03-29T21:34:24.354Z,10.55
2023-03-29T21:36:51.384Z,7.75
2023-03-29T21:39:18.136Z,6.70
2023-03-29T21:41:44.894Z,6.03
2023-03-29T21:44:11.689Z,7.35
2023-03-29T21:46:38.508Z,6.20
2023-03-29T21:49:05.454Z,8.18
2023-03-29T21:51:32.650Z,5.57
2023-03-29T21:53:59.383Z,8.90
2023-03-29T21:56:26.317Z,9.23
2023-03-29T21:58:53.052Z,9.23
2023-03-29T22:01:19.768Z,5.95
2023-03-29T22:03:47.487Z,6.10
2023-03-29T22:06:15.241Z,11.60
2023-03-29T22:08:41.945Z,5.78
2023-03-29T22:11:14.264Z,10.55
2023-03-29T22:13:42.436Z,4.80
2023-03-29T22:16:13.788Z,4.90
2023-03-29T22:18:43.652Z,5.25
2023-03-29T22:21:23.623Z,6.30
2023-03-29T22:23:56.279Z,7.78
2023-03-29T22:26:27.819Z,11.18
2023-03-29T22:28:55.309Z,9.10
2023-03-29T22:31:24.297Z,9.43
2023-03-29T22:33:51.253Z,8.00
2023-03-29T22:36:30.584Z,7.82
2023-03-29T22:38:58.018Z,8.43
2023-03-29T22:41:27.670Z,10.85
2023-03-29T22:43:58.113Z,9.95
2023-03-29T22:46:25.453Z,8.60
2023-03-29T22:48:53.114Z,13.57
2023-03-29T22:51:20.700Z,11.10
2023-03-29T22:53:47.603Z,10.77
2023-03-29T22:56:16.382Z,12.13
2023-03-29T22:58:44.310Z,9.05
2023-03-29T23:01:11.837Z,11.25
2023-03-29T23:03:38.577Z,13.10
2023-03-29T23:06:05.987Z,6.57
2023-03-29T23:08:34.090Z,8.00
2023-03-29T23:11:02.765Z,9.43
2023-03-29T23:13:30.283Z,6.68
2023-03-29T23:16:00.346Z,8.07
2023-03-29T23:18:30.240Z,8.65
2023-03-29T23:21:01.908Z,9.27
2023-03-29T23:23:28.995Z,8.00
2023-03-29T23:25:56.424Z,9.85
2023-03-29T23:28:27.450Z,8.35
2023-03-29T23:31:03.791Z,10.27
2023-03-29T23:33:34.946Z,13.80
2023-03-29T23:36:04.779Z,12.75
2023-03-29T23:38:34.294Z,8.88
2023-03-29T23:41:04.288Z,9.18
2023-03-29T23:43:34.167Z,7.47
2023-03-29T23:46:05.077Z,8.52
2023-03-29T23:48:34.243Z,9.05
2023-03-29T23:51:03.103Z,6.57
2023-03-29T23:53:31.434Z,6.70
2023-03-29T23:56:05.348Z,9.10
2023-03-29T23:58:37.838Z,8.13
